sensor_id;sensor_type;location;lat;lon;timestamp;pressure;altitude;pressure_sealevel;temperature;humidity
75740;BME280;64357;51.344;6.550;2023-03-11T00:00:38;100326.72;;;1.37;90.28
75740;BME280;64357;51.344;6.550;2023-03-11T00:03:05;100336.47;;;1.41;89.82
75740;BME280;64357;51.344;6.550;2023-03-11T00:05:36;100331.75;;;1.37;89.28
75740;BME280;64357;51.344;6.550;2023-03-11T00:08:03;100333.31;;;1.29;89.64
75740;BME280;64357;51.344;6.550;2023-03-11T00:10:32;100341.69;;;1.43;89.50
75740;BME280;64357;51.344;6.550;2023-03-11T00:12:58;100343.03;;;1.33;89.73
75740;BME280;64357;51.344;6.550;2023-03-11T00:15:27;100342.84;;;1.32;89.93
75740;BME280;64357;51.344;6.550;2023-03-11T00:17:54;100333.31;;;1.29;89.88
75740;BME280;64357;51.344;6.550;2023-03-11T00:20:23;100352.66;;;1.43;89.91
75740;BME280;64357;51.344;6.550;2023-03-11T00:22:52;100356.13;;;1.31;90.67
75740;BME280;64357;51.344;6.550;2023-03-11T00:25:22;100367.59;;;1.29;90.16
75740;BME280;64357;51.344;6.550;2023-03-11T00:27:48;100369.09;;;1.34;89.96
75740;BME280;64357;51.344;6.550;2023-03-11T00:30:14;100361.41;;;1.40;90.09
75740;BME280;64357;51.344;6.550;2023-03-11T00:32:40;100365.38;;;1.38;90.52
75740;BME280;64357;51.344;6.550;2023-03-11T00:35:06;100367.22;;;1.46;90.35
75740;BME280;64357;51.344;6.550;2023-03-11T00:37:34;100371.50;;;1.40;88.88
75740;BME280;64357;51.344;6.550;2023-03-11T00:40:00;100370.22;;;1.36;89.54
75740;BME280;64357;51.344;6.550;2023-03-11T00:42:25;100364.47;;;1.37;90.11
75740;BME280;64357;51.344;6.550;2023-03-11T00:44:53;100368.91;;;1.32;89.03
75740;BME280;64357;51.344;6.550;2023-03-11T00:47:18;100374.53;;;1.37;88.52
75740;BME280;64357;51.344;6.550;2023-03-11T00:49:48;100374.72;;;1.39;89.23
75740;BME280;64357;51.344;6.550;2023-03-11T00:52:25;100367.59;;;1.29;89.45
75740;BME280;64357;51.344;6.550;2023-03-11T00:54:55;100369.09;;;1.34;89.45
75740;BME280;64357;51.344;6.550;2023-03-11T00:57:20;100373.44;;;1.35;89.25
75740;BME280;64357;51.344;6.550;2023-03-11T00:59:46;100378.97;;;1.32;89.19
75740;BME280;64357;51.344;6.550;2023-03-11T01:02:12;100384.66;;;1.24;88.70
75740;BME280;64357;51.344;6.550;2023-03-11T01:04:40;100376.50;;;1.20;89.58
75740;BME280;64357;51.344;6.550;2023-03-11T01:07:08;100381.59;;;1.27;89.52
75740;BME280;64357;51.344;6.550;2023-03-11T01:09:33;100383.88;;;1.18;88.58
75740;BME280;64357;51.344;6.550;2023-03-11T01:11:59;100388.00;;;1.18;89.02
75740;BME280;64357;51.344;6.550;2023-03-11T01:14:24;100387.00;;;1.10;89.75
75740;BME280;64357;51.344;6.550;2023-03-11T01:16:50;100385.19;;;1.09;89.53
75740;BME280;64357;51.344;6.550;2023-03-11T01:19:18;100379.78;;;1.06;90.16
75740;BME280;64357;51.344;6.550;2023-03-11T01:21:43;100390.22;;;1.09;89.69
75740;BME280;64357;51.344;6.550;2023-03-11T01:24:09;100395.19;;;1.02;89.79
75740;BME280;64357;51.344;6.550;2023-03-11T01:26:39;100390.53;;;1.05;89.85
75740;BME280;64357;51.344;6.550;2023-03-11T01:29:07;100385.63;;;0.99;89.56
75740;BME280;64357;51.344;6.550;2023-03-11T01:31:35;100390.97;;;0.95;90.40
75740;BME280;64357;51.344;6.550;2023-03-11T01:34:02;100402.66;;;0.95;90.59
75740;BME280;64357;51.344;6.550;2023-03-11T01:36:30;100397.63;;;0.82;90.86
75740;BME280;64357;51.344;6.550;2023-03-11T01:38:55;100403.97;;;0.86;91.45
75740;BME280;64357;51.344;6.550;2023-03-11T01:41:22;100397.16;;;0.72;91.01
75740;BME280;64357;51.344;6.550;2023-03-11T01:43:53;100415.13;;;0.75;91.02
75740;BME280;64357;51.344;6.550;2023-03-11T01:48:50;100407.72;;;0.57;91.34
75740;BME280;64357;51.344;6.550;2023-03-11T01:53:50;100413.44;;;0.56;91.48
75740;BME280;64357;51.344;6.550;2023-03-11T01:56:16;100427.34;;;0.59;90.93
75740;BME280;64357;51.344;6.550;2023-03-11T01:58:43;100432.75;;;0.62;90.56
75740;BME280;64357;51.344;6.550;2023-03-11T02:01:11;100435.88;;;0.54;90.24
75740;BME280;64357;51.344;6.550;2023-03-11T02:03:39;100426.72;;;0.55;89.53
75740;BME280;64357;51.344;6.550;2023-03-11T02:06:11;100425.69;;;0.47;89.45
75740;BME280;64357;51.344;6.550;2023-03-11T02:08:39;100439.78;;;0.52;89.90
75740;BME280;64357;51.344;6.550;2023-03-11T02:11:08;100437.16;;;0.45;89.22
75740;BME280;64357;51.344;6.550;2023-03-11T02:13:34;100436.06;;;0.43;89.67
75740;BME280;64357;51.344;6.550;2023-03-11T02:16:02;100432.44;;;0.41;89.16
75740;BME280;64357;51.344;6.550;2023-03-11T02:18:28;100437.97;;;0.38;88.69
75740;BME280;64357;51.344;6.550;2023-03-11T02:23:23;100444.41;;;0.36;88.35
75740;BME280;64357;51.344;6.550;2023-03-11T02:26:06;100439.25;;;0.29;87.71
75740;BME280;64357;51.344;6.550;2023-03-11T02:28:35;100439.25;;;0.29;87.85
75740;BME280;64357;51.344;6.550;2023-03-11T02:31:05;100438.16;;;0.27;87.74
75740;BME280;64357;51.344;6.550;2023-03-11T02:33:31;100435.25;;;0.24;88.06
75740;BME280;64357;51.344;6.550;2023-03-11T02:35:58;100441.66;;;0.22;87.95
75740;BME280;64357;51.344;6.550;2023-03-11T02:38:24;100440.75;;;0.21;87.31
75740;BME280;64357;51.344;6.550;2023-03-11T02:40:56;100439.16;;;0.22;88.11
75740;BME280;64357;51.344;6.550;2023-03-11T02:43:44;100446.28;;;0.19;86.95
75740;BME280;64357;51.344;6.550;2023-03-11T02:46:11;100449.19;;;0.22;87.39
75740;BME280;64357;51.344;6.550;2023-03-11T02:48:38;100451.50;;;0.20;87.39
75740;BME280;64357;51.344;6.550;2023-03-11T02:51:03;100440.94;;;0.10;87.00
75740;BME280;64357;51.344;6.550;2023-03-11T02:53:31;100450.00;;;0.15;86.24
75740;BME280;64357;51.344;6.550;2023-03-11T02:55:58;100457.22;;;0.07;87.45
75740;BME280;64357;51.344;6.550;2023-03-11T02:58:23;100440.84;;;0.03;86.11
75740;BME280;64357;51.344;6.550;2023-03-11T03:00:51;100453.59;;;0.05;85.59
75740;BME280;64357;51.344;6.550;2023-03-11T03:03:16;100456.72;;;0.09;86.42
75740;BME280;64357;51.344;6.550;2023-03-11T03:05:44;100454.91;;;0.08;86.43
75740;BME280;64357;51.344;6.550;2023-03-11T03:08:12;100441.94;;;0.05;86.48
75740;BME280;64357;51.344;6.550;2023-03-11T03:10:40;100456.09;;;0.05;85.61
75740;BME280;64357;51.344;6.550;2023-03-11T03:13:08;100463.50;;;-0.03;85.83
75740;BME280;64357;51.344;6.550;2023-03-11T03:15:34;100457.69;;;0.04;85.72
75740;BME280;64357;51.344;6.550;2023-03-11T03:18:02;100456.59;;;0.02;86.44
75740;BME280;64357;51.344;6.550;2023-03-11T03:20:27;100457.41;;;-0.05;85.75
75740;BME280;64357;51.344;6.550;2023-03-11T03:22:53;100458.69;;;-0.01;85.48
75740;BME280;64357;51.344;6.550;2023-03-11T03:25:19;100467.22;;;-0.06;85.12
75740;BME280;64357;51.344;6.550;2023-03-11T03:27:44;100462.00;;;-0.08;84.91
75740;BME280;64357;51.344;6.550;2023-03-11T03:30:10;100472.03;;;-0.08;85.87
75740;BME280;64357;51.344;6.550;2023-03-11T03:32:38;100473.00;;;-0.13;85.31
75740;BME280;64357;51.344;6.550;2023-03-11T03:35:06;100466.47;;;-0.18;85.72
75740;BME280;64357;51.344;6.550;2023-03-11T03:37:34;100485.09;;;-0.10;85.74
75740;BME280;64357;51.344;6.550;2023-03-11T03:40:00;100483.06;;;-0.13;85.77
75740;BME280;64357;51.344;6.550;2023-03-11T03:42:26;100485.56;;;-0.13;85.84
75740;BME280;64357;51.344;6.550;2023-03-11T03:44:51;100485.88;;;-0.17;86.29
75740;BME280;64357;51.344;6.550;2023-03-11T03:47:17;100496.91;;;-0.22;85.48
75740;BME280;64357;51.344;6.550;2023-03-11T03:49:45;100494.84;;;-0.24;86.68
75740;BME280;64357;51.344;6.550;2023-03-11T03:52:13;100495.09;;;-0.23;86.02
75740;BME280;64357;51.344;6.550;2023-03-11T03:54:42;100506.31;;;-0.27;86.34
75740;BME280;64357;51.344;6.550;2023-03-11T03:57:07;100506.09;;;-0.28;86.52
75740;BME280;64357;51.344;6.550;2023-03-11T03:59:33;100511.19;;;-0.34;86.56
75740;BME280;64357;51.344;6.550;2023-03-11T04:01:58;100521.56;;;-0.25;87.31
75740;BME280;64357;51.344;6.550;2023-03-11T04:04:24;100517.53;;;-0.30;87.26
75740;BME280;64357;51.344;6.550;2023-03-11T04:06:50;100519.47;;;-0.22;86.78
75740;BME280;64357;51.344;6.550;2023-03-11T04:09:16;100524.06;;;-0.25;86.24
75740;BME280;64357;51.344;6.550;2023-03-11T04:11:41;100515.72;;;-0.31;86.62
75740;BME280;64357;51.344;6.550;2023-03-11T04:14:06;100530.06;;;-0.30;86.34
75740;BME280;64357;51.344;6.550;2023-03-11T04:16:32;100523.38;;;-0.24;86.98
75740;BME280;64357;51.344;6.550;2023-03-11T04:18:57;100527.72;;;-0.23;86.60
75740;BME280;64357;51.344;6.550;2023-03-11T04:21:23;100528.91;;;-0.27;86.02
75740;BME280;64357;51.344;6.550;2023-03-11T04:23:50;100537.59;;;-0.30;86.58
75740;BME280;64357;51.344;6.550;2023-03-11T04:26:16;100536.63;;;-0.25;85.91
75740;BME280;64357;51.344;6.550;2023-03-11T04:28:41;100538.94;;;-0.27;85.83
75740;BME280;64357;51.344;6.550;2023-03-11T04:31:09;100532.03;;;-0.22;85.85
75740;BME280;64357;51.344;6.550;2023-03-11T04:33:34;100536.94;;;-0.29;85.41
75740;BME280;64357;51.344;6.550;2023-03-11T04:36:04;100547.09;;;-0.22;86.53
75740;BME280;64357;51.344;6.550;2023-03-11T04:38:30;100550.31;;;-0.23;86.29
75740;BME280;64357;51.344;6.550;2023-03-11T04:41:05;100557.53;;;-0.19;86.66
75740;BME280;64357;51.344;6.550;2023-03-11T04:43:33;100546.13;;;-0.17;86.35
75740;BME280;64357;51.344;6.550;2023-03-11T04:45:59;100550.31;;;-0.23;86.70
75740;BME280;64357;51.344;6.550;2023-03-11T04:48:26;100555.94;;;-0.18;86.63
75740;BME280;64357;51.344;6.550;2023-03-11T04:50:52;100556.44;;;-0.21;85.94
75740;BME280;64357;51.344;6.550;2023-03-11T04:53:20;100556.81;;;-0.18;85.95
75740;BME280;64357;51.344;6.550;2023-03-11T04:55:46;100547.72;;;-0.17;86.26
75740;BME280;64357;51.344;6.550;2023-03-11T04:58:15;100561.56;;;-0.14;86.11
75740;BME280;64357;51.344;6.550;2023-03-11T05:00:43;100557.47;;;-0.13;85.41
75740;BME280;64357;51.344;6.550;2023-03-11T05:03:08;100557.19;;;-0.09;85.61
75740;BME280;64357;51.344;6.550;2023-03-11T05:05:34;100554.94;;;-0.13;85.87
75740;BME280;64357;51.344;6.550;2023-03-11T05:07:59;100568.97;;;-0.03;85.18
75740;BME280;64357;51.344;6.550;2023-03-11T05:10:24;100564.66;;;-0.04;85.44
75740;BME280;64357;51.344;6.550;2023-03-11T05:12:52;100576.69;;;-0.01;84.79
75740;BME280;64357;51.344;6.550;2023-03-11T05:15:18;100568.25;;;-0.02;85.74
75740;BME280;64357;51.344;6.550;2023-03-11T05:17:43;100569.88;;;-0.02;84.98
75740;BME280;64357;51.344;6.550;2023-03-11T05:20:09;100572.38;;;-0.02;85.31
75740;BME280;64357;51.344;6.550;2023-03-11T05:22:35;100569.59;;;0.02;84.63
75740;BME280;64357;51.344;6.550;2023-03-11T05:25:01;100579.13;;;0.05;85.04
75740;BME280;64357;51.344;6.550;2023-03-11T05:27:26;100580.53;;;0.03;84.72
75740;BME280;64357;51.344;6.550;2023-03-11T05:29:51;100582.16;;;0.02;85.57
75740;BME280;64357;51.344;6.550;2023-03-11T05:32:20;100578.31;;;-0.02;84.34
75740;BME280;64357;51.344;6.550;2023-03-11T05:34:48;100586.47;;;0.03;84.96
75740;BME280;64357;51.344;6.550;2023-03-11T05:37:13;100583.94;;;0.03;84.08
75740;BME280;64357;51.344;6.550;2023-03-11T05:39:39;100586.25;;;0.02;83.68
75740;BME280;64357;51.344;6.550;2023-03-11T05:42:05;100584.78;;;0.09;84.57
75740;BME280;64357;51.344;6.550;2023-03-11T05:44:31;100583.75;;;0.02;84.95
75740;BME280;64357;51.344;6.550;2023-03-11T05:46:57;100589.47;;;0.01;85.00
75740;BME280;64357;51.344;6.550;2023-03-11T05:49:23;100586.97;;;0.01;85.11
75740;BME280;64357;51.344;6.550;2023-03-11T05:51:49;100592.59;;;0.05;85.14
75740;BME280;64357;51.344;6.550;2023-03-11T05:54:15;100599.03;;;0.03;84.92
75740;BME280;64357;51.344;6.550;2023-03-11T05:56:42;100597.91;;;0.01;84.62
75740;BME280;64357;51.344;6.550;2023-03-11T05:59:07;100600.19;;;-0.01;85.67
75740;BME280;64357;51.344;6.550;2023-03-11T06:01:33;100605.00;;;-0.02;85.19
75740;BME280;64357;51.344;6.550;2023-03-11T06:04:01;100594.13;;;-0.08;85.22
75740;BME280;64357;51.344;6.550;2023-03-11T06:06:26;100603.28;;;-0.09;85.64
75740;BME280;64357;51.344;6.550;2023-03-11T06:08:57;100606.44;;;-0.04;85.51
75740;BME280;64357;51.344;6.550;2023-03-11T06:11:23;100614.84;;;-0.04;86.35
75740;BME280;64357;51.344;6.550;2023-03-11T06:13:53;100620.34;;;-0.06;86.06
75740;BME280;64357;51.344;6.550;2023-03-11T06:16:22;100614.59;;;0.01;86.18
75740;BME280;64357;51.344;6.550;2023-03-11T06:18:51;100604.44;;;-0.12;85.61
75740;BME280;64357;51.344;6.550;2023-03-11T06:21:19;100621.06;;;-0.07;86.40
75740;BME280;64357;51.344;6.550;2023-03-11T06:23:47;100622.53;;;-0.15;85.87
75740;BME280;64357;51.344;6.550;2023-03-11T06:26:15;100623.03;;;-0.17;86.92
75740;BME280;64357;51.344;6.550;2023-03-11T06:28:44;100634.38;;;-0.14;86.54
75740;BME280;64357;51.344;6.550;2023-03-11T06:31:13;100644.41;;;-0.14;86.36
75740;BME280;64357;51.344;6.550;2023-03-11T06:33:42;100627.88;;;-0.24;87.11
75740;BME280;64357;51.344;6.550;2023-03-11T06:36:09;100640.03;;;-0.28;86.94
75740;BME280;64357;51.344;6.550;2023-03-11T06:38:38;100652.13;;;-0.31;87.18
75740;BME280;64357;51.344;6.550;2023-03-11T06:41:04;100655.84;;;-0.34;87.05
75740;BME280;64357;51.344;6.550;2023-03-11T06:43:30;100658.34;;;-0.34;87.49
75740;BME280;64357;51.344;6.550;2023-03-11T06:45:57;100652.00;;;-0.38;88.83
75740;BME280;64357;51.344;6.550;2023-03-11T06:48:25;100646.22;;;-0.31;87.53
75740;BME280;64357;51.344;6.550;2023-03-11T06:50:57;100661.31;;;-0.37;87.37
75740;BME280;64357;51.344;6.550;2023-03-11T06:53:23;100665.19;;;-0.33;88.01
75740;BME280;64357;51.344;6.550;2023-03-11T06:56:04;100675.38;;;-0.26;87.22
75740;BME280;64357;51.344;6.550;2023-03-11T06:58:34;100683.16;;;-0.30;87.13
75740;BME280;64357;51.344;6.550;2023-03-11T07:01:18;100679.81;;;-0.18;87.21
75740;BME280;64357;51.344;6.550;2023-03-11T07:03:49;100680.25;;;-0.15;86.97
75740;BME280;64357;51.344;6.550;2023-03-11T07:06:23;100690.50;;;-0.13;86.28
75740;BME280;64357;51.344;6.550;2023-03-11T07:08:50;100702.09;;;-0.08;85.78
75740;BME280;64357;51.344;6.550;2023-03-11T07:11:25;100716.19;;;-0.03;85.55
75740;BME280;64357;51.344;6.550;2023-03-11T07:13:54;100703.19;;;-0.06;84.81
75740;BME280;64357;51.344;6.550;2023-03-11T07:16:24;100710.59;;;0.05;84.43
75740;BME280;64357;51.344;6.550;2023-03-11T07:18:55;100718.78;;;0.10;83.86
75740;BME280;64357;51.344;6.550;2023-03-11T07:21:21;100724.00;;;0.11;82.75
75740;BME280;64357;51.344;6.550;2023-03-11T07:23:57;100728.06;;;0.16;83.11
75740;BME280;64357;51.344;6.550;2023-03-11T07:26:24;100724.66;;;0.16;83.08
75740;BME280;64357;51.344;6.550;2023-03-11T07:28:50;100732.06;;;0.27;83.11
75740;BME280;64357;51.344;6.550;2023-03-11T07:31:22;100738.47;;;0.25;82.71
75740;BME280;64357;51.344;6.550;2023-03-11T07:33:48;100739.31;;;0.31;82.91
75740;BME280;64357;51.344;6.550;2023-03-11T07:36:16;100747.31;;;0.29;82.03
75740;BME280;64357;51.344;6.550;2023-03-11T07:38:43;100755.22;;;0.37;82.51
75740;BME280;64357;51.344;6.550;2023-03-11T07:41:11;100749.78;;;0.34;81.84
75740;BME280;64357;51.344;6.550;2023-03-11T07:43:38;100748.09;;;0.40;83.14
75740;BME280;64357;51.344;6.550;2023-03-11T07:46:09;100750.84;;;0.42;82.44
75740;BME280;64357;51.344;6.550;2023-03-11T07:48:37;100747.84;;;0.44;82.55
75740;BME280;64357;51.344;6.550;2023-03-11T07:51:11;100753.22;;;0.53;82.95
75740;BME280;64357;51.344;6.550;2023-03-11T07:53:39;100757.94;;;0.57;82.83
75740;BME280;64357;51.344;6.550;2023-03-11T07:56:11;100760.88;;;0.60;82.22
75740;BME280;64357;51.344;6.550;2023-03-11T07:58:38;100766.16;;;0.74;82.57
75740;BME280;64357;51.344;6.550;2023-03-11T08:01:09;100764.63;;;0.88;82.85
75740;BME280;64357;51.344;6.550;2023-03-11T08:03:37;100767.03;;;0.93;80.95
75740;BME280;64357;51.344;6.550;2023-03-11T08:06:45;100771.72;;;1.03;79.11
75740;BME280;64357;51.344;6.550;2023-03-11T08:09:09;100767.25;;;1.13;79.28
75740;BME280;64357;51.344;6.550;2023-03-11T08:11:35;100757.38;;;1.15;79.20
75740;BME280;64357;51.344;6.550;2023-03-11T08:14:08;100767.34;;;1.20;80.07
75740;BME280;64357;51.344;6.550;2023-03-11T08:16:37;100769.28;;;1.28;78.87
75740;BME280;64357;51.344;6.550;2023-03-11T08:19:05;100765.84;;;1.28;77.78
75740;BME280;64357;51.344;6.550;2023-03-11T08:21:33;100757.03;;;1.37;77.42
75740;BME280;64357;51.344;6.550;2023-03-11T08:24:01;100768.91;;;1.51;76.50
75740;BME280;64357;51.344;6.550;2023-03-11T08:26:38;100774.78;;;1.57;76.48
75740;BME280;64357;51.344;6.550;2023-03-11T08:29:12;100777.91;;;1.62;77.08
75740;BME280;64357;51.344;6.550;2023-03-11T08:31:50;100771.06;;;1.60;76.61
75740;BME280;64357;51.344;6.550;2023-03-11T08:34:16;100779.72;;;1.63;75.70
75740;BME280;64357;51.344;6.550;2023-03-11T08:37:02;100779.03;;;1.76;75.76
75740;BME280;64357;51.344;6.550;2023-03-11T08:39:39;100760.09;;;1.85;75.12
75740;BME280;64357;51.344;6.550;2023-03-11T08:42:04;100785.69;;;2.01;74.63
75740;BME280;64357;51.344;6.550;2023-03-11T08:44:30;100763.72;;;2.00;73.07
75740;BME280;64357;51.344;6.550;2023-03-11T08:46:59;100761.78;;;2.05;73.31
75740;BME280;64357;51.344;6.550;2023-03-11T08:49:24;100775.41;;;2.00;72.77
75740;BME280;64357;51.344;6.550;2023-03-11T08:51:52;100788.38;;;2.28;72.39
75740;BME280;64357;51.344;6.550;2023-03-11T08:54:17;100768.81;;;2.33;72.06
75740;BME280;64357;51.344;6.550;2023-03-11T08:56:43;100776.19;;;2.19;72.11
75740;BME280;64357;51.344;6.550;2023-03-11T08:59:11;100801.59;;;2.20;73.05
75740;BME280;64357;51.344;6.550;2023-03-11T09:01:36;100788.25;;;2.34;72.58
75740;BME280;64357;51.344;6.550;2023-03-11T09:04:01;100795.63;;;2.32;70.61
75740;BME280;64357;51.344;6.550;2023-03-11T09:06:27;100796.25;;;2.37;71.49
75740;BME280;64357;51.344;6.550;2023-03-11T09:08:54;100785.13;;;2.42;71.06
75740;BME280;64357;51.344;6.550;2023-03-11T09:11:19;100796.47;;;2.71;71.32
75740;BME280;64357;51.344;6.550;2023-03-11T09:13:47;100791.97;;;2.88;70.66
75740;BME280;64357;51.344;6.550;2023-03-11T09:16:21;100797.63;;;2.80;70.50
75740;BME280;64357;51.344;6.550;2023-03-11T09:18:49;100789.13;;;2.92;69.35
75740;BME280;64357;51.344;6.550;2023-03-11T09:21:24;100798.25;;;3.05;67.84
75740;BME280;64357;51.344;6.550;2023-03-11T09:23:49;100801.41;;;2.97;66.77
75740;BME280;64357;51.344;6.550;2023-03-11T09:26:15;100802.66;;;3.13;66.37
75740;BME280;64357;51.344;6.550;2023-03-11T09:28:41;100796.84;;;3.27;64.25
75740;BME280;64357;51.344;6.550;2023-03-11T09:31:06;100804.22;;;3.25;64.40
75740;BME280;64357;51.344;6.550;2023-03-11T09:33:36;100808.03;;;3.48;64.65
75740;BME280;64357;51.344;6.550;2023-03-11T09:36:02;100801.28;;;3.62;63.00
75740;BME280;64357;51.344;6.550;2023-03-11T09:38:27;100808.81;;;3.55;62.30
75740;BME280;64357;51.344;6.550;2023-03-11T09:41:04;100802.84;;;3.54;62.02
75740;BME280;64357;51.344;6.550;2023-03-11T09:43:44;100815.66;;;3.76;61.32
75740;BME280;64357;51.344;6.550;2023-03-11T09:52:05;100816.03;;;4.06;59.39
75740;BME280;64357;51.344;6.550;2023-03-11T09:54:36;100806.03;;;4.27;55.07
75740;BME280;64357;51.344;6.550;2023-03-11T09:57:08;100800.09;;;4.34;53.57
75740;BME280;64357;51.344;6.550;2023-03-11T09:59:36;100809.13;;;4.80;50.48
75740;BME280;64357;51.344;6.550;2023-03-11T10:02:04;100818.25;;;4.51;49.85
75740;BME280;64357;51.344;6.550;2023-03-11T10:07:16;100821.28;;;4.82;47.84
75740;BME280;64357;51.344;6.550;2023-03-11T10:09:51;100820.78;;;4.99;48.55
75740;BME280;64357;51.344;6.550;2023-03-11T10:12:26;100832.38;;;5.04;45.44
75740;BME280;64357;51.344;6.550;2023-03-11T10:26:04;100833.72;;;7.34;39.79
75740;BME280;64357;51.344;6.550;2023-03-11T10:28:42;100826.69;;;7.24;39.19
75740;BME280;64357;51.344;6.550;2023-03-11T10:34:19;100826.72;;;7.47;39.28
75740;BME280;64357;51.344;6.550;2023-03-11T10:37:30;100833.25;;;6.92;42.49
75740;BME280;64357;51.344;6.550;2023-03-11T10:39:36;100828.56;;;6.81;42.64
75740;BME280;64357;51.344;6.550;2023-03-11T10:42:04;100838.25;;;6.62;43.51
75740;BME280;64357;51.344;6.550;2023-03-11T10:44:40;100829.34;;;7.03;42.77
75740;BME280;64357;51.344;6.550;2023-03-11T10:47:13;100831.00;;;5.99;43.21
75740;BME280;64357;51.344;6.550;2023-03-11T10:49:43;100831.34;;;6.17;42.88
75740;BME280;64357;51.344;6.550;2023-03-11T10:52:11;100833.56;;;6.51;43.54
75740;BME280;64357;51.344;6.550;2023-03-11T10:54:39;100838.53;;;6.35;43.93
75740;BME280;64357;51.344;6.550;2023-03-11T10:57:26;100833.84;;;6.09;43.81
75740;BME280;64357;51.344;6.550;2023-03-11T10:59:55;100829.72;;;6.03;44.48
75740;BME280;64357;51.344;6.550;2023-03-11T11:02:27;100831.91;;;6.00;42.69
75740;BME280;64357;51.344;6.550;2023-03-11T11:07:40;100825.72;;;5.62;43.76
75740;BME280;64357;51.344;6.550;2023-03-11T11:12:58;100829.44;;;6.44;42.31
75740;BME280;64357;51.344;6.550;2023-03-11T11:15:32;100836.34;;;6.38;41.61
75740;BME280;64357;51.344;6.550;2023-03-11T11:18:01;100841.50;;;5.95;42.15
75740;BME280;64357;51.344;6.550;2023-03-11T11:20:28;100845.28;;;5.49;43.05
75740;BME280;64357;51.344;6.550;2023-03-11T11:22:55;100845.47;;;5.65;43.52
75740;BME280;64357;51.344;6.550;2023-03-11T11:25:30;100848.00;;;5.72;43.11
75740;BME280;64357;51.344;6.550;2023-03-11T11:27:59;100846.75;;;5.97;42.82
75740;BME280;64357;51.344;6.550;2023-03-11T11:30:26;100847.22;;;6.37;42.82
75740;BME280;64357;51.344;6.550;2023-03-11T11:32:52;100844.78;;;7.04;41.69
75740;BME280;64357;51.344;6.550;2023-03-11T11:35:23;100841.97;;;7.47;40.87
75740;BME280;64357;51.344;6.550;2023-03-11T11:37:51;100835.34;;;8.18;38.35
75740;BME280;64357;51.344;6.550;2023-03-11T11:40:27;100826.94;;;8.42;38.21
75740;BME280;64357;51.344;6.550;2023-03-11T11:42:56;100834.47;;;8.65;38.41
75740;BME280;64357;51.344;6.550;2023-03-11T11:45:36;100828.75;;;8.59;38.38
75740;BME280;64357;51.344;6.550;2023-03-11T11:48:21;100811.91;;;7.82;46.14
75740;BME280;64357;51.344;6.550;2023-03-11T11:50:59;100826.81;;;8.33;39.21
75740;BME280;64357;51.344;6.550;2023-03-11T11:53:29;100836.19;;;7.41;40.04
75740;BME280;64357;51.344;6.550;2023-03-11T11:55:56;100836.56;;;7.37;42.10
75740;BME280;64357;51.344;6.550;2023-03-11T11:58:22;100833.47;;;7.09;43.63
75740;BME280;64357;51.344;6.550;2023-03-11T12:00:57;100847.00;;;6.94;42.50
75740;BME280;64357;51.344;6.550;2023-03-11T12:03:39;100838.19;;;6.76;43.36
75740;BME280;64357;51.344;6.550;2023-03-11T12:09:25;100840.50;;;7.19;41.30
75740;BME280;64357;51.344;6.550;2023-03-11T12:14:43;100838.84;;;6.89;41.40
75740;BME280;64357;51.344;6.550;2023-03-11T12:17:21;100833.31;;;6.19;42.50
75740;BME280;64357;51.344;6.550;2023-03-11T12:19:59;100848.53;;;6.19;42.65
75740;BME280;64357;51.344;6.550;2023-03-11T12:30:44;100849.03;;;6.45;41.63
75740;BME280;64357;51.344;6.550;2023-03-11T12:33:34;100848.16;;;6.82;41.48
75740;BME280;64357;51.344;6.550;2023-03-11T12:36:04;100845.03;;;6.47;42.69
75740;BME280;64357;51.344;6.550;2023-03-11T12:38:41;100848.41;;;6.62;43.01
75740;BME280;64357;51.344;6.550;2023-03-11T12:44:00;100829.75;;;6.91;41.42
75740;BME280;64357;51.344;6.550;2023-03-11T12:57:31;100829.13;;;7.38;39.38
75740;BME280;64357;51.344;6.550;2023-03-11T13:08:48;100814.91;;;9.37;35.58
75740;BME280;64357;51.344;6.550;2023-03-11T13:14:31;100823.69;;;9.23;35.14
75740;BME280;64357;51.344;6.550;2023-03-11T13:17:26;100827.03;;;8.12;37.44
75740;BME280;64357;51.344;6.550;2023-03-11T13:19:56;100824.56;;;8.05;37.33
75740;BME280;64357;51.344;6.550;2023-03-11T13:22:40;100825.56;;;8.14;38.18
75740;BME280;64357;51.344;6.550;2023-03-11T13:31:04;100810.59;;;8.40;38.17
75740;BME280;64357;51.344;6.550;2023-03-11T13:33:53;100805.81;;;8.74;37.09
75740;BME280;64357;51.344;6.550;2023-03-11T13:42:01;100811.59;;;7.26;40.30
75740;BME280;64357;51.344;6.550;2023-03-11T13:44:34;100804.25;;;7.13;40.82
75740;BME280;64357;51.344;6.550;2023-03-11T13:47:09;100817.84;;;7.13;41.96
75740;BME280;64357;51.344;6.550;2023-03-11T13:49:54;100821.03;;;6.97;41.83
75740;BME280;64357;51.344;6.550;2023-03-11T13:52:46;100829.75;;;6.91;42.10
75740;BME280;64357;51.344;6.550;2023-03-11T13:55:19;100838.38;;;6.33;41.16
75740;BME280;64357;51.344;6.550;2023-03-11T13:57:52;100822.22;;;6.26;42.90
75740;BME280;64357;51.344;6.550;2023-03-11T14:00:20;100830.78;;;6.12;42.83
75740;BME280;64357;51.344;6.550;2023-03-11T14:02:50;100826.63;;;6.05;42.13
75740;BME280;64357;51.344;6.550;2023-03-11T14:05:22;100825.69;;;6.33;42.13
75740;BME280;64357;51.344;6.550;2023-03-11T14:07:51;100831.72;;;5.98;42.02
75740;BME280;64357;51.344;6.550;2023-03-11T14:10:19;100831.50;;;5.89;41.19
75740;BME280;64357;51.344;6.550;2023-03-11T14:12:46;100828.97;;;6.04;42.42
75740;BME280;64357;51.344;6.550;2023-03-11T14:15:24;100837.47;;;5.90;40.96
75740;BME280;64357;51.344;6.550;2023-03-11T14:17:52;100830.78;;;5.62;41.88
75740;BME280;64357;51.344;6.550;2023-03-11T14:20:21;100832.41;;;5.69;43.80
75740;BME280;64357;51.344;6.550;2023-03-11T14:22:51;100836.06;;;6.06;42.89
75740;BME280;64357;51.344;6.550;2023-03-11T14:25:27;100837.16;;;6.01;42.49
75740;BME280;64357;51.344;6.550;2023-03-11T14:27:59;100835.50;;;5.87;42.58
75740;BME280;64357;51.344;6.550;2023-03-11T14:30:28;100842.78;;;5.99;43.16
75740;BME280;64357;51.344;6.550;2023-03-11T14:33:02;100832.44;;;6.11;43.56
75740;BME280;64357;51.344;6.550;2023-03-11T14:35:32;100840.22;;;6.06;43.54